Time;durP1;ratioP1;P1;durP2;ratioP2;P2;SDS_P1;SDS_P2;PMS_P1;PMS_P2;Temp;Humidity;BMP_temperature;BMP_pressure;BME280_temperature;BME280_humidity;BME280_pressure;Samples;Min_cycle;Max_cycle;Signal;HPM_P1;HPM_P2
2023/05/30 00:01:44;;;;;;;;;;;;;;;19.92;59.46;99499.50;4431425;32;34667;-81
2023/05/30 00:04:15;;;;;;;;;;;;;;;19.95;59.43;99491.44;4431872;32;33760;-81
2023/05/30 00:06:44;;;;;;;;;;;;;;;19.86;59.79;99497.19;4437174;32;32862;-79
2023/05/30 00:09:13;;;;;;;;;;;;;;;19.45;60.93;99493.22;4431992;32;34449;-79
2023/05/30 00:11:43;;;;;;;;;;;;;;;19.57;60.63;99500.47;4431199;32;34143;-79
2023/05/30 00:14:11;;;;;;;;;;;;;;;19.45;60.90;99495.84;4431412;32;33936;-79
2023/05/30 00:16:41;;;;;;;;;;;;;;;19.65;60.29;99496.56;4431536;32;33344;-79
2023/05/30 00:19:10;;;;;;;;;;;;;;;19.56;60.41;99490.00;4436703;32;33207;-80
2023/05/30 00:21:40;;;;;;;;;;;;;;;19.39;61.23;99491.75;4431427;32;33537;-79
2023/05/30 00:24:10;;;;;;;;;;;;;;;19.65;60.45;99488.69;4431679;32;33548;-81
2023/05/30 00:26:38;;;;;;;;;;;;;;;19.72;60.23;99488.28;4431831;32;34311;-79
2023/05/30 00:29:07;;;;;;;;;;;;;;;19.56;60.71;99496.09;4434961;32;33962;-79
2023/05/30 00:31:39;;;;;;;;;;;;;;;19.61;60.47;99483.56;4436892;32;33788;-79
2023/05/30 00:34:07;;;;;;;;;;;;;;;19.67;60.03;99487.66;4437045;32;35034;-79
2023/05/30 00:36:38;;;;;;;;;;;;;;;19.47;60.70;99490.50;4431021;32;33178;-79
2023/05/30 00:39:08;;;;;;;;;;;;;;;19.65;59.88;99488.69;4431306;32;33296;-79
2023/05/30 00:41:37;;;;;;;;;;;;;;;19.59;59.96;99485.41;4436713;32;33711;-78
2023/05/30 00:44:06;;;;;;;;;;;;;;;19.57;60.16;99484.66;4431268;32;35232;-81
2023/05/30 00:46:36;;;;;;;;;;;;;;;19.53;60.50;99488.38;4431293;32;32665;-79
2023/05/30 00:49:06;;;;;;;;;;;;;;;19.51;60.73;99484.16;4431547;32;34358;-79
2023/05/30 00:51:35;;;;;;;;;;;;;;;19.60;60.36;99481.88;4436566;32;34019;-81
2023/05/30 00:54:03;;;;;;;;;;;;;;;19.65;60.25;99489.53;4431446;32;34195;-79
2023/05/30 00:56:33;;;;;;;;;;;;;;;19.70;60.05;99478.78;4434099;32;34099;-80
2023/05/30 00:59:02;;;;;;;;;;;;;;;19.56;60.54;99485.59;4431464;32;34046;-80
2023/05/30 01:01:32;;;;;;;;;;;;;;;19.56;60.89;99496.09;4434979;32;34500;-81
2023/05/30 01:04:01;;;;;;;;;;;;;;;19.81;59.21;99482.53;4436995;32;35259;-80
2023/05/30 01:06:30;;;;;;;;;;;;;;;19.93;59.26;99493.31;4431482;32;33636;-80
2023/05/30 01:08:59;;;;;;;;;;;;;;;19.75;59.72;99489.91;4430982;32;33629;-79
2023/05/30 01:11:30;;;;;;;;;;;;;;;19.79;59.35;99484.38;4431495;32;34018;-79
2023/05/30 01:14:03;;;;;;;;;;;;;;;20.00;58.48;99492.03;4436526;32;34143;-78
2023/05/30 01:16:33;;;;;;;;;;;;;;;20.03;58.08;99490.09;4431701;32;33128;-78
2023/05/30 01:19:04;;;;;;;;;;;;;;;19.98;57.97;99486.88;4430817;32;33555;-79
2023/05/30 01:21:33;;;;;;;;;;;;;;;20.11;56.96;99494.09;4431342;32;34290;-79
2023/05/30 01:24:15;;;;;;;;;;;;;;;20.04;57.50;99496.19;4435804;32;34705;-79
2023/05/30 01:26:50;;;;;;;;;;;;;;;20.17;56.66;99493.72;4436408;32;33977;-79
2023/05/30 01:29:21;;;;;;;;;;;;;;;20.10;56.78;99493.22;4430944;32;34212;-79
2023/05/30 01:31:50;;;;;;;;;;;;;;;20.11;56.57;99496.72;4430838;32;33212;-80
2023/05/30 01:34:19;;;;;;;;;;;;;;;19.96;56.52;99488.72;4430873;32;34092;-79
2023/05/30 01:36:48;;;;;;;;;;;;;;;19.88;57.35;99487.44;4436564;32;34042;-80
2023/05/30 01:39:16;;;;;;;;;;;;;;;19.98;57.00;99486.00;4429871;32;32920;-78
2023/05/30 01:41:47;;;;;;;;;;;;;;;19.80;57.64;99482.59;4431251;32;34586;-80
2023/05/30 01:44:17;;;;;;;;;;;;;;;19.90;57.28;99490.84;4431549;32;33394;-80
2023/05/30 01:46:49;;;;;;;;;;;;;;;19.86;57.60;99484.03;4430965;32;32757;-79
2023/05/30 01:49:19;;;;;;;;;;;;;;;19.80;57.79;99479.97;4436397;32;34242;-78
2023/05/30 01:51:49;;;;;;;;;;;;;;;19.89;57.57;99484.75;4430996;32;33778;-79
2023/05/30 01:54:19;;;;;;;;;;;;;;;19.97;57.30;99479.88;4430853;32;34293;-78
2023/05/30 01:56:50;;;;;;;;;;;;;;;19.87;57.66;99481.34;4415680;32;33106;-78
2023/05/30 01:59:19;;;;;;;;;;;;;;;20.11;57.06;99483.56;4421020;32;33916;-79
2023/05/30 02:01:49;;;;;;;;;;;;;;;20.08;57.01;99483.69;4418440;32;34286;-80
2023/05/30 02:04:18;;;;;;;;;;;;;;;19.98;57.31;99483.37;4415521;32;34180;-79
2023/05/30 02:06:47;;;;;;;;;;;;;;;20.07;56.94;99482.84;4420397;32;34971;-80
2023/05/30 02:09:16;;;;;;;;;;;;;;;19.97;57.38;99482.53;4429101;32;33725;-78
2023/05/30 02:11:45;;;;;;;;;;;;;;;20.04;57.45;99485.66;4424717;32;33544;-81
2023/05/30 02:14:14;;;;;;;;;;;;;;;20.16;57.24;99484.13;4428472;32;35282;-81
2023/05/30 02:16:42;;;;;;;;;;;;;;;20.05;57.87;99482.09;4428034;32;34254;-81
2023/05/30 02:19:18;;;;;;;;;;;;;;;19.99;58.26;99488.56;4429706;32;34228;-80
2023/05/30 02:21:47;;;;;;;;;;;;;;;19.99;58.46;99483.28;4433993;32;33962;-81
2023/05/30 02:24:17;;;;;;;;;;;;;;;19.99;58.66;99483.28;4429388;32;33588;-78
2023/05/30 02:26:45;;;;;;;;;;;;;;;20.09;58.41;99488.91;4428511;32;32728;-80
2023/05/30 02:29:14;;;;;;;;;;;;;;;19.91;59.02;99482.87;4429354;32;34139;-80
2023/05/30 02:31:43;;;;;;;;;;;;;;;19.98;58.91;99481.59;4428707;32;34214;-80
2023/05/30 02:34:13;;;;;;;;;;;;;;;19.91;59.11;99484.63;4434120;32;34174;-79
2023/05/30 02:36:43;;;;;;;;;;;;;;;19.99;59.02;99475.37;4424697;32;34318;-79
2023/05/30 02:39:12;;;;;;;;;;;;;;;19.80;59.56;99477.34;4425052;32;33797;-79
2023/05/30 02:41:41;;;;;;;;;;;;;;;19.82;59.47;99472.84;4429840;32;33938;-80
2023/05/30 02:44:10;;;;;;;;;;;;;;;19.82;59.67;99470.22;4434414;32;33997;-79
2023/05/30 02:46:40;;;;;;;;;;;;;;;19.95;59.10;99465.13;4429368;32;32053;-78
2023/05/30 02:49:09;;;;;;;;;;;;;;;19.98;59.05;99463.16;4429688;32;33762;-79
2023/05/30 02:51:38;;;;;;;;;;;;;;;19.94;59.23;99466.06;4429605;32;33652;-79
2023/05/30 02:54:09;;;;;;;;;;;;;;;19.78;59.93;99466.87;4428807;32;34984;-81
2023/05/30 02:56:38;;;;;;;;;;;;;;;19.94;59.07;99469.53;4435205;32;33586;-79
2023/05/30 02:59:08;;;;;;;;;;;;;;;19.95;59.05;99465.13;4429518;32;34107;-80
2023/05/30 03:01:37;;;;;;;;;;;;;;;19.85;59.39;99467.41;4428199;32;34660;-79
2023/05/30 03:04:07;;;;;;;;;;;;;;;20.02;58.85;99472.56;4428663;32;34557;-80
2023/05/30 03:06:38;;;;;;;;;;;;;;;19.61;60.46;99480.94;4435376;32;33939;-79
2023/05/30 03:09:11;;;;;;;;;;;;;;;19.83;59.93;99478.00;4429461;32;34103;-80
2023/05/30 03:11:39;;;;;;;;;;;;;;;19.91;59.28;99479.38;4431664;32;33864;-80
2023/05/30 03:14:08;;;;;;;;;;;;;;;19.82;59.63;99483.37;4398585;32;1253149;-79
2023/05/30 03:16:38;;;;;;;;;;;;;;;19.97;59.34;99484.31;4430125;32;33569;-81
2023/05/30 03:19:08;;;;;;;;;;;;;;;19.82;59.97;99483.37;4435298;32;34635;-80
2023/05/30 03:21:37;;;;;;;;;;;;;;;19.70;60.68;99484.88;4430333;32;34296;-80
2023/05/30 03:24:06;;;;;;;;;;;;;;;19.70;60.64;99482.25;4430392;32;33767;-79
2023/05/30 03:26:36;;;;;;;;;;;;;;;19.86;60.20;99487.53;4430456;32;33511;-80
2023/05/30 03:29:07;;;;;;;;;;;;;;;19.84;60.39;99486.78;4435500;32;35852;-80
2023/05/30 03:31:36;;;;;;;;;;;;;;;19.91;60.24;99496.03;4430590;32;34463;-79
2023/05/30 03:34:05;;;;;;;;;;;;;;;19.76;60.72;99491.59;4435002;32;34321;-80
2023/05/30 03:36:35;;;;;;;;;;;;;;;19.81;60.83;99495.69;4436628;32;34204;-78
2023/05/30 03:39:04;;;;;;;;;;;;;;;19.96;60.37;99498.44;4437549;32;34004;-80
2023/05/30 03:41:33;;;;;;;;;;;;;;;19.89;60.84;99497.91;4440508;32;34680;-79
2023/05/30 03:44:03;;;;;;;;;;;;;;;20.09;60.47;99506.50;4434486;32;33742;-78
2023/05/30 03:46:33;;;;;;;;;;;;;;;20.04;60.41;99502.31;4435268;32;33052;-79
2023/05/30 03:49:02;;;;;;;;;;;;;;;19.83;60.78;99493.81;4433369;32;34559;-79
2023/05/30 03:51:33;;;;;;;;;;;;;;;19.86;60.38;99499.84;4447782;32;34396;-79
2023/05/30 03:54:02;;;;;;;;;;;;;;;20.02;60.34;99509.44;4442537;32;34222;-79
2023/05/30 03:56:31;;;;;;;;;;;;;;;20.04;59.58;99512.84;4442910;32;33832;-78
2023/05/30 03:58:59;;;;;;;;;;;;;;;20.25;58.91;99516.09;4438739;32;34664;-78
2023/05/30 04:01:30;;;;;;;;;;;;;;;20.40;58.52;99517.00;4446217;32;33827;-79
2023/05/30 04:04:00;;;;;;;;;;;;;;;20.52;58.27;99518.09;4441943;32;34869;-79
2023/05/30 04:06:30;;;;;;;;;;;;;;;20.84;56.49;99521.53;4445879;32;33276;-78
2023/05/30 04:09:01;;;;;;;;;;;;;;;20.42;58.13;99512.50;4434814;32;33780;-78
2023/05/30 04:11:30;;;;;;;;;;;;;;;20.76;56.88;99515.88;4434825;32;33838;-80
2023/05/30 04:14:00;;;;;;;;;;;;;;;20.70;57.34;99520.63;4448239;32;34356;-79
2023/05/30 04:16:31;;;;;;;;;;;;;;;20.84;56.76;99521.53;4437633;32;33111;-78
2023/05/30 04:19:00;;;;;;;;;;;;;;;20.92;56.52;99525.50;4439449;32;34491;-79
2023/05/30 04:21:29;;;;;;;;;;;;;;;20.76;56.98;99529.06;4441073;32;34095;-79
2023/05/30 04:23:57;;;;;;;;;;;;;;;20.94;56.32;99528.91;4446106;32;35066;-80
2023/05/30 04:26:27;;;;;;;;;;;;;;;20.92;56.72;99533.41;4441058;32;33564;-81
2023/05/30 04:28:57;;;;;;;;;;;;;;;21.02;56.03;99529.28;4437128;32;34223;-79
2023/05/30 04:31:26;;;;;;;;;;;;;;;21.15;55.54;99532.94;4436834;32;33608;-78
2023/05/30 04:33:56;;;;;;;;;;;;;;;21.35;55.02;99536.16;4440481;32;34103;-79
2023/05/30 04:36:27;;;;;;;;;;;;;;;21.21;55.52;99535.19;4441742;32;32983;-80
2023/05/30 04:38:56;;;;;;;;;;;;;;;21.34;55.44;99545.88;4435905;32;33924;-80
2023/05/30 04:41:26;;;;;;;;;;;;;;;21.19;55.75;99542.38;4433595;32;33780;-80
2023/05/30 04:43:57;;;;;;;;;;;;;;;21.35;55.33;99547.56;4433877;32;33949;-81
2023/05/30 04:46:27;;;;;;;;;;;;;;;21.31;55.13;99546.91;4440982;32;34104;-80
2023/05/30 04:49:00;;;;;;;;;;;;;;;20.80;56.60;99554.31;4436001;32;34242;-79
2023/05/30 04:51:30;;;;;;;;;;;;;;;21.15;55.83;99555.81;4437227;32;33991;-78
2023/05/30 04:54:00;;;;;;;;;;;;;;;21.39;55.10;99558.78;4434466;32;34600;-79
2023/05/30 04:56:32;;;;;;;;;;;;;;;21.50;54.70;99549.31;4430970;32;33307;-79
2023/05/30 04:59:00;;;;;;;;;;;;;;;21.47;54.87;99551.28;4433613;32;34318;-79
2023/05/30 05:01:29;;;;;;;;;;;;;;;21.54;54.74;99554.41;4436499;32;34421;-79
2023/05/30 05:04:00;;;;;;;;;;;;;;;21.56;55.24;99556.00;4429611;32;34090;-79
2023/05/30 05:06:29;;;;;;;;;;;;;;;21.67;55.65;99556.22;4429486;32;33163;-80
2023/05/30 05:08:57;;;;;;;;;;;;;;;22.19;54.21;99553.91;4435464;32;35294;-81
2023/05/30 05:11:28;;;;;;;;;;;;;;;22.44;52.73;99556.69;4430103;32;34232;-79
2023/05/30 05:13:57;;;;;;;;;;;;;;;22.20;53.73;99559.09;4430824;32;35143;-79
2023/05/30 05:16:26;;;;;;;;;;;;;;;21.98;53.42;99559.56;4435496;32;33411;-78
2023/05/30 05:18:56;;;;;;;;;;;;;;;21.94;52.82;99564.22;4443094;32;34151;-79
2023/05/30 05:21:26;;;;;;;;;;;;;;;22.33;51.53;99560.03;4433437;32;33727;-81
2023/05/30 05:23:55;;;;;;;;;;;;;;;22.19;51.77;99569.75;4421246;32;34097;-79
2023/05/30 05:26:24;;;;;;;;;;;;;;;22.25;51.71;99561.47;4425181;32;33606;-79
2023/05/30 05:28:53;;;;;;;;;;;;;;;22.16;51.92;99569.00;4429853;32;34840;-80
2023/05/30 05:31:22;;;;;;;;;;;;;;;22.37;51.39;99571.25;4436501;32;34201;-79
2023/05/30 05:33:51;;;;;;;;;;;;;;;21.92;52.15;99565.25;4432586;32;33927;-81
2023/05/30 05:36:20;;;;;;;;;;;;;;;22.35;51.34;99563.44;4436900;32;33580;-81
2023/05/30 05:38:50;;;;;;;;;;;;;;;22.55;50.71;99571.88;4425455;32;34053;-81
2023/05/30 05:41:19;;;;;;;;;;;;;;;22.04;51.85;99577.69;4421630;32;34864;-80
2023/05/30 05:43:48;;;;;;;;;;;;;;;22.51;50.67;99576.50;4436488;32;34242;-79
2023/05/30 05:46:20;;;;;;;;;;;;;;;22.30;51.56;99584.03;4430542;32;33302;-79
2023/05/30 05:48:54;;;;;;;;;;;;;;;22.17;52.59;99580.41;4433292;32;33133;-79
2023/05/30 05:51:23;;;;;;;;;;;;;;;22.18;52.74;99579.50;4438856;32;33996;-79
2023/05/30 05:53:53;;;;;;;;;;;;;;;22.17;53.17;99575.97;4438470;32;35037;-80
2023/05/30 05:56:22;;;;;;;;;;;;;;;22.20;52.83;99582.00;4430952;32;32672;-81
2023/05/30 05:58:51;;;;;;;;;;;;;;;22.20;52.09;99580.25;4429463;32;34083;-80
2023/05/30 06:01:20;;;;;;;;;;;;;;;22.54;51.80;99581.63;4429976;32;33973;-80
2023/05/30 06:03:49;;;;;;;;;;;;;;;22.60;52.01;99585.66;4430977;32;33892;-79
2023/05/30 06:06:18;;;;;;;;;;;;;;;22.79;51.70;99583.50;4435585;32;33387;-79
2023/05/30 06:08:46;;;;;;;;;;;;;;;22.96;51.53;99582.37;4429595;32;34135;-80
2023/05/30 06:11:17;;;;;;;;;;;;;;;23.13;50.82;99586.59;4430259;32;34046;-79
2023/05/30 06:13:47;;;;;;;;;;;;;;;22.57;51.52;99585.84;4430373;32;34831;-78
2023/05/30 06:16:16;;;;;;;;;;;;;;;22.92;50.17;99590.63;4435927;32;34349;-79
2023/05/30 06:18:45;;;;;;;;;;;;;;;23.00;48.63;99588.34;4430561;32;33928;-80
2023/05/30 06:21:13;;;;;;;;;;;;;;;22.94;48.06;99597.50;4430433;32;34239;-80
2023/05/30 06:23:43;;;;;;;;;;;;;;;22.34;49.70;99604.00;4445532;32;34182;-78
2023/05/30 06:26:12;;;;;;;;;;;;;;;22.63;49.26;99605.75;4451228;32;33397;-80
2023/05/30 06:28:43;;;;;;;;;;;;;;;22.95;48.92;99601.88;4442992;32;34857;-79
2023/05/30 06:31:12;;;;;;;;;;;;;;;22.79;47.94;99604.66;4436375;32;34306;-81
2023/05/30 06:33:42;;;;;;;;;;;;;;;22.86;47.90;99605.13;4437499;32;34340;-79
2023/05/30 06:36:11;;;;;;;;;;;;;;;22.79;47.87;99598.53;4436550;32;33717;-80
2023/05/30 06:38:40;;;;;;;;;;;;;;;22.94;48.38;99604.59;4443037;32;35967;-79
2023/05/30 06:41:09;;;;;;;;;;;;;;;23.34;47.00;99605.47;4436890;32;34914;-81
2023/05/30 06:43:38;;;;;;;;;;;;;;;23.65;46.95;99603.38;4439256;32;34138;-79
2023/05/30 06:46:08;;;;;;;;;;;;;;;23.26;47.30;99609.59;4447844;32;33657;-79
2023/05/30 06:48:37;;;;;;;;;;;;;;;23.20;47.21;99611.69;4447808;32;34935;-80
2023/05/30 06:51:06;;;;;;;;;;;;;;;23.45;46.79;99617.12;4433666;32;33843;-80
2023/05/30 06:53:35;;;;;;;;;;;;;;;23.11;47.63;99612.31;4444501;32;34006;-79
2023/05/30 06:56:04;;;;;;;;;;;;;;;23.01;47.54;99613.88;4435757;32;34053;-79
2023/05/30 06:58:34;;;;;;;;;;;;;;;22.62;47.11;99615.47;4429805;32;33813;-79
2023/05/30 07:01:03;;;;;;;;;;;;;;;23.04;47.13;99618.09;4434522;32;33415;-80
2023/05/30 07:03:33;;;;;;;;;;;;;;;23.33;45.79;99622.28;4429103;32;34065;-80
2023/05/30 07:06:02;;;;;;;;;;;;;;;23.91;45.54;99625.44;4429318;32;32845;-81
2023/05/30 07:08:31;;;;;;;;;;;;;;;23.40;45.66;99625.38;4428248;32;33872;-80
2023/05/30 07:10:59;;;;;;;;;;;;;;;23.89;44.34;99624.69;4434909;32;33911;-80
2023/05/30 07:13:28;;;;;;;;;;;;;;;24.42;44.82;99628.00;4428980;32;34290;-80
2023/05/30 07:15:57;;;;;;;;;;;;;;;24.70;42.35;99626.91;4428758;32;34274;-79
2023/05/30 07:18:25;;;;;;;;;;;;;;;24.13;43.26;99624.78;4429288;32;34261;-79
2023/05/30 07:20:56;;;;;;;;;;;;;;;24.54;42.61;99630.78;4434918;32;33737;-80
2023/05/30 07:23:25;;;;;;;;;;;;;;;24.44;42.84;99636.72;4435554;32;33879;-79
2023/05/30 07:25:54;;;;;;;;;;;;;;;24.96;41.97;99628.59;4430200;32;33698;-81
2023/05/30 07:28:23;;;;;;;;;;;;;;;25.46;41.28;99624.00;4429682;32;33975;-79
2023/05/30 07:30:52;;;;;;;;;;;;;;;25.34;41.65;99628.41;4429755;32;35008;-80
2023/05/30 07:33:20;;;;;;;;;;;;;;;25.34;41.75;99636.38;4435268;32;34099;-79
2023/05/30 07:35:49;;;;;;;;;;;;;;;25.42;41.93;99636.66;4429730;32;33585;-79
2023/05/30 07:38:21;;;;;;;;;;;;;;;25.52;42.57;99632.34;4429798;32;33872;-81
2023/05/30 07:40:50;;;;;;;;;;;;;;;25.50;41.39;99634.28;4429532;32;34062;-79
2023/05/30 07:43:18;;;;;;;;;;;;;;;25.65;41.26;99642.03;4435101;32;35132;-80
2023/05/30 07:45:47;;;;;;;;;;;;;;;25.54;40.33;99625.13;4429704;32;33481;-79
2023/05/30 07:48:16;;;;;;;;;;;;;;;25.54;41.55;99630.44;4429487;32;34086;-81
2023/05/30 07:50:44;;;;;;;;;;;;;;;25.73;41.82;99636.97;4430271;32;33819;-79
2023/05/30 07:53:13;;;;;;;;;;;;;;;25.50;43.31;99634.28;4429388;32;34241;-78
2023/05/30 07:55:43;;;;;;;;;;;;;;;25.74;42.01;99638.66;4435301;32;33671;-80
2023/05/30 07:58:12;;;;;;;;;;;;;;;26.05;42.10;99634.50;4429534;32;34703;-81
2023/05/30 08:00:41;;;;;;;;;;;;;;;26.26;40.26;99631.09;4429358;32;35097;-80
2023/05/30 08:03:10;;;;;;;;;;;;;;;26.25;41.63;99632.94;4429259;32;34091;-80
2023/05/30 08:05:39;;;;;;;;;;;;;;;25.93;41.73;99630.16;4433917;32;32912;-78
2023/05/30 08:08:09;;;;;;;;;;;;;;;26.07;40.85;99631.72;4429301;32;33846;-81
2023/05/30 08:10:37;;;;;;;;;;;;;;;26.09;41.86;99637.75;4429305;32;33419;-80
2023/05/30 08:13:08;;;;;;;;;;;;;;;25.66;40.47;99638.41;4429036;32;33681;-80
2023/05/30 08:15:37;;;;;;;;;;;;;;;25.65;40.68;99636.72;4433099;32;34721;-80
2023/05/30 08:18:08;;;;;;;;;;;;;;;26.11;41.41;99639.31;4433362;32;35063;-80
2023/05/30 08:20:37;;;;;;;;;;;;;;;25.99;39.76;99642.94;4431420;32;33704;-78
2023/05/30 08:23:05;;;;;;;;;;;;;;;26.07;40.70;99640.56;4431375;32;34045;-78
2023/05/30 08:25:35;;;;;;;;;;;;;;;25.99;40.84;99636.78;4430846;32;33680;-79
2023/05/30 08:28:04;;;;;;;;;;;;;;;25.99;42.71;99642.09;4436759;32;34753;-80
2023/05/30 08:30:34;;;;;;;;;;;;;;;26.33;42.15;99637.63;4431229;32;33757;-79
2023/05/30 08:33:04;;;;;;;;;;;;;;;26.37;40.49;99642.59;4431121;32;34114;-79
2023/05/30 08:35:33;;;;;;;;;;;;;;;26.02;40.47;99640.03;4431331;32;33208;-79
2023/05/30 08:38:02;;;;;;;;;;;;;;;26.15;42.17;99635.47;4436625;32;34257;-79
2023/05/30 08:40:31;;;;;;;;;;;;;;;25.67;41.89;99640.94;4435140;32;34691;-79
2023/05/30 08:43:00;;;;;;;;;;;;;;;26.19;41.65;99636.06;4430950;32;34504;-80
2023/05/30 08:45:30;;;;;;;;;;;;;;;26.42;40.17;99639.56;4431147;32;33547;-78
2023/05/30 08:48:00;;;;;;;;;;;;;;;26.03;42.51;99638.25;4430821;32;34074;-80
2023/05/30 08:50:29;;;;;;;;;;;;;;;25.79;42.36;99641.81;4436866;32;34231;-80
2023/05/30 08:52:58;;;;;;;;;;;;;;;26.11;43.38;99643.81;4430895;32;34815;-81
2023/05/30 08:55:28;;;;;;;;;;;;;;;26.57;43.20;99650.81;4431053;32;33166;-81
2023/05/30 08:57:58;;;;;;;;;;;;;;;26.46;41.08;99656.09;4430807;32;34407;-79
2023/05/30 09:00:27;;;;;;;;;;;;;;;26.21;41.40;99665.19;4436754;32;33728;-79
2023/05/30 09:02:57;;;;;;;;;;;;;;;26.72;42.00;99664.69;4430739;32;34841;-79
2023/05/30 09:05:29;;;;;;;;;;;;;;;26.68;42.11;99668.59;4431351;32;32789;-79
2023/05/30 09:08:01;;;;;;;;;;;;;;;25.87;42.85;99665.16;4431179;32;34003;-81
2023/05/30 09:10:32;;;;;;;;;;;;;;;25.76;43.34;99674.78;4430808;32;33709;-81
2023/05/30 09:13:01;;;;;;;;;;;;;;;26.38;42.80;99673.53;4436525;32;34101;-81
2023/05/30 09:15:30;;;;;;;;;;;;;;;26.28;43.74;99682.38;4430900;32;33009;-80
2023/05/30 09:17:58;;;;;;;;;;;;;;;26.42;41.58;99691.94;4430811;32;34781;-79
2023/05/30 09:20:28;;;;;;;;;;;;;;;26.65;41.15;99679.47;4430874;32;35022;-81
2023/05/30 09:22:57;;;;;;;;;;;;;;;26.55;41.63;99684.69;4436305;32;34186;-80
2023/05/30 09:25:32;;;;;;;;;;;;;;;26.94;41.00;99685.97;4430920;32;34185;-79
2023/05/30 09:28:00;;;;;;;;;;;;;;;26.99;41.83;99688.22;4433260;32;33953;-80
2023/05/30 09:30:29;;;;;;;;;;;;;;;27.19;41.66;99687.47;4430594;32;34179;-78
2023/05/30 09:33:02;;;;;;;;;;;;;;;27.41;41.20;99689.19;4430693;32;34595;-80
2023/05/30 09:35:32;;;;;;;;;;;;;;;27.52;39.79;99690.97;4435167;32;32866;-80
2023/05/30 09:38:03;;;;;;;;;;;;;;;27.50;39.19;99694.72;4430670;32;33339;-80
2023/05/30 09:40:32;;;;;;;;;;;;;;;27.02;41.03;99698.63;4430672;32;33914;-79
2023/05/30 09:43:01;;;;;;;;;;;;;;;26.81;41.81;99701.22;4431010;32;34239;-79
2023/05/30 09:45:30;;;;;;;;;;;;;;;27.27;40.19;99696.66;4436579;32;33345;-80
2023/05/30 09:47:59;;;;;;;;;;;;;;;27.14;39.94;99692.31;4430659;32;33403;-79
2023/05/30 09:50:28;;;;;;;;;;;;;;;26.86;39.98;99696.37;4430793;32;34827;-79
2023/05/30 09:52:58;;;;;;;;;;;;;;;26.91;40.08;99693.34;4430462;32;34762;-81
2023/05/30 09:55:27;;;;;;;;;;;;;;;27.30;40.70;99688.41;4433440;32;34157;-80
2023/05/30 09:57:59;;;;;;;;;;;;;;;27.05;39.40;99694.88;4435873;32;34504;-81
2023/05/30 10:00:30;;;;;;;;;;;;;;;27.32;39.11;99689.97;4430464;32;36018;-80
2023/05/30 10:02:58;;;;;;;;;;;;;;;27.29;39.64;99682.22;4430547;32;34492;-79
2023/05/30 10:05:28;;;;;;;;;;;;;;;27.33;39.79;99683.69;4430583;32;33271;-80
2023/05/30 10:07:58;;;;;;;;;;;;;;;27.69;39.69;99686.03;4435851;32;34298;-81
2023/05/30 10:10:27;;;;;;;;;;;;;;;27.69;39.11;99686.03;4430821;32;33852;-79
2023/05/30 10:12:57;;;;;;;;;;;;;;;27.71;39.45;99684.06;4430296;32;33971;-81
2023/05/30 10:15:26;;;;;;;;;;;;;;;27.44;40.06;99683.59;4430402;32;32635;-80
2023/05/30 10:17:56;;;;;;;;;;;;;;;27.61;39.70;99681.34;4430278;32;34779;-81
2023/05/30 10:20:26;;;;;;;;;;;;;;;28.09;39.82;99681.66;4435978;32;34315;-80
2023/05/30 10:22:55;;;;;;;;;;;;;;;28.36;38.07;99682.06;4430503;32;33516;-80
2023/05/30 10:25:26;;;;;;;;;;;;;;;28.44;37.16;99683.09;4430621;32;34360;-80
2023/05/30 10:27:57;;;;;;;;;;;;;;;28.34;35.41;99678.69;4430201;32;34931;-80
2023/05/30 10:30:26;;;;;;;;;;;;;;;28.52;35.95;99674.44;4436126;32;33195;-80
2023/05/30 10:32:58;;;;;;;;;;;;;;;28.48;35.85;99679.19;4430398;32;34229;-80
2023/05/30 10:35:26;;;;;;;;;;;;;;;28.02;37.66;99677.84;4430180;32;34711;-80
2023/05/30 10:37:55;;;;;;;;;;;;;;;27.81;38.33;99679.66;4430322;32;33822;-81
2023/05/30 10:40:30;;;;;;;;;;;;;;;27.77;39.23;99673.75;4430206;32;34770;-81
2023/05/30 10:43:03;;;;;;;;;;;;;;;28.00;39.19;99671.78;4434559;32;34202;-79
2023/05/30 10:45:35;;;;;;;;;;;;;;;27.83;39.60;99667.91;4430476;32;32738;-81
2023/05/30 10:48:06;;;;;;;;;;;;;;;28.47;39.52;99671.34;4430317;32;33845;-82
2023/05/30 10:50:40;;;;;;;;;;;;;;;28.62;38.62;99677.12;4430309;32;33943;-79
2023/05/30 10:53:15;;;;;;;;;;;;;;;28.44;38.62;99684.91;4432954;32;35040;-81
2023/05/30 10:55:48;;;;;;;;;;;;;;;28.96;38.03;99680.28;4434259;32;33160;-81
2023/05/30 10:58:36;;;;;;;;;;;;;;;29.30;36.82;99672.75;4430193;32;33093;-82
2023/05/30 11:01:24;;;;;;;;;;;;;;;28.45;38.19;99668.78;4430399;32;34190;-80
2023/05/30 11:03:59;;;;;;;;;;;;;;;28.72;39.30;99670.00;4430094;32;33771;-79
2023/05/30 11:06:33;;;;;;;;;;;;;;;29.16;36.17;99667.81;4430455;32;33310;-79
2023/05/30 11:09:07;;;;;;;;;;;;;;;29.37;36.94;99670.38;4435423;32;33729;-79
2023/05/30 11:11:42;;;;;;;;;;;;;;;29.56;35.20;99667.69;4430399;32;34812;-80
2023/05/30 11:14:14;;;;;;;;;;;;;;;29.63;34.29;99661.78;4429594;32;34153;-79
2023/05/30 11:16:49;;;;;;;;;;;;;;;29.78;33.29;99660.34;4430184;32;33954;-81
2023/05/30 11:19:20;;;;;;;;;;;;;;;29.60;32.94;99664.72;4430457;32;34187;-80
2023/05/30 11:21:59;;;;;;;;;;;;;;;29.72;34.14;99661.78;4439883;32;34204;-79
2023/05/30 11:24:28;;;;;;;;;;;;;;;29.81;33.45;99662.72;4432297;32;33919;-81
2023/05/30 11:26:59;;;;;;;;;;;;;;;29.40;34.97;99655.88;4430491;32;34298;-79
2023/05/30 11:29:35;;;;;;;;;;;;;;;29.81;34.35;99661.91;4430014;32;34211;-79
2023/05/30 11:32:07;;;;;;;;;;;;;;;29.59;35.06;99655.84;4430140;32;35204;-79
2023/05/30 11:34:36;;;;;;;;;;;;;;;29.66;35.32;99651.66;4435476;32;34940;-79
2023/05/30 11:37:05;;;;;;;;;;;;;;;29.74;35.50;99651.78;4430648;32;33282;-79
2023/05/30 11:39:34;;;;;;;;;;;;;;;29.61;34.28;99650.37;4429926;32;34357;-80
2023/05/30 11:42:05;;;;;;;;;;;;;;;29.61;33.07;99650.37;4430081;32;34064;-79
2023/05/30 11:44:34;;;;;;;;;;;;;;;29.58;33.92;99651.50;4437895;32;34535;-80
2023/05/30 11:47:04;;;;;;;;;;;;;;;29.43;33.97;99648.44;4439680;32;34390;-79
2023/05/30 11:49:37;;;;;;;;;;;;;;;29.88;34.58;99650.47;4429607;32;33852;-80
2023/05/30 11:52:08;;;;;;;;;;;;;;;29.95;33.40;99646.22;4434061;32;35120;-79
2023/05/30 11:54:36;;;;;;;;;;;;;;;30.04;33.14;99646.34;4431443;32;33485;-79
2023/05/30 11:57:07;;;;;;;;;;;;;;;30.08;34.85;99643.22;4442430;32;33511;-81
2023/05/30 11:59:36;;;;;;;;;;;;;;;30.37;31.69;99634.25;4438742;32;33669;-80
2023/05/30 12:02:06;;;;;;;;;;;;;;;30.54;31.59;99633.47;4436876;32;33990;-82
2023/05/30 12:04:35;;;;;;;;;;;;;;;30.42;33.50;99631.97;4437370;32;34093;-81
2023/05/30 12:07:06;;;;;;;;;;;;;;;30.44;34.07;99629.16;4437035;32;34322;-81
2023/05/30 12:09:36;;;;;;;;;;;;;;;30.76;34.42;99634.87;4438329;32;33641;-80
2023/05/30 12:12:07;;;;;;;;;;;;;;;30.73;32.59;99631.66;4437427;32;33678;-79
2023/05/30 12:14:40;;;;;;;;;;;;;;;30.69;31.95;99630.28;4434015;32;34329;-81
2023/05/30 12:17:12;;;;;;;;;;;;;;;30.61;32.92;99641.72;4438573;32;33431;-80
2023/05/30 12:19:41;;;;;;;;;;;;;;;30.92;33.08;99633.38;4440896;32;34922;-80
2023/05/30 12:22:10;;;;;;;;;;;;;;;30.84;32.63;99634.16;4437652;32;34128;-79
2023/05/30 12:24:39;;;;;;;;;;;;;;;31.13;32.46;99630.41;4441704;32;34371;-79
2023/05/30 12:27:17;;;;;;;;;;;;;;;31.13;31.87;99628.56;4434321;32;33648;-80
2023/05/30 12:29:46;;;;;;;;;;;;;;;31.36;32.79;99625.38;4431010;32;34528;-81
2023/05/30 12:32:15;;;;;;;;;;;;;;;31.22;32.32;99616.09;4437224;32;33916;-79
2023/05/30 12:34:45;;;;;;;;;;;;;;;31.38;32.26;99620.72;4431275;32;34328;-79
2023/05/30 12:37:13;;;;;;;;;;;;;;;31.05;32.49;99617.78;4432737;32;33899;-79
2023/05/30 12:39:46;;;;;;;;;;;;;;;31.08;32.97;99611.28;4430825;32;34230;-79
2023/05/30 12:42:21;;;;;;;;;;;;;;;31.46;32.27;99607.41;4435575;32;33863;-79
2023/05/30 12:44:51;;;;;;;;;;;;;;;30.87;33.38;99604.37;4429762;32;34695;-80
2023/05/30 12:47:20;;;;;;;;;;;;;;;31.51;31.51;99614.97;4429911;32;33405;-79
2023/05/30 12:49:49;;;;;;;;;;;;;;;31.54;31.13;99601.25;4428798;32;33930;-81
2023/05/30 12:52:18;;;;;;;;;;;;;;;31.70;32.00;99604.03;4423310;32;33668;-79
2023/05/30 12:54:47;;;;;;;;;;;;;;;31.95;30.92;99602.38;4430729;32;32503;-79
2023/05/30 12:57:18;;;;;;;;;;;;;;;32.26;30.24;99609.91;4429341;32;34180;-79
2023/05/30 12:59:49;;;;;;;;;;;;;;;32.44;28.10;99604.41;4431411;32;34118;-80
2023/05/30 13:02:20;;;;;;;;;;;;;;;32.73;28.09;99610.19;4425065;32;35497;-79